sensor_id;sensor_type;location;lat;lon;timestamp;P1;durP1;ratioP1;P2;durP2;ratioP2
74689;SDS011;63221;51.860;-2.188;2022-09-12T00:01:03;9.60;;;5.60;;
74689;SDS011;63221;51.860;-2.188;2022-09-12T00:03:32;8.52;;;5.82;;
74689;SDS011;63221;51.860;-2.188;2022-09-12T00:05:58;8.10;;;5.47;;
74689;SDS011;63221;51.860;-2.188;2022-09-12T00:08:23;10.13;;;5.72;;
74689;SDS011;63221;51.860;-2.188;2022-09-12T00:10:48;8.23;;;5.50;;
74689;SDS011;63221;51.860;-2.188;2022-09-12T00:13:14;6.95;;;5.03;;
74689;SDS011;63221;51.860;-2.188;2022-09-12T00:15:40;7.77;;;4.70;;
74689;SDS011;63221;51.860;-2.188;2022-09-12T00:18:12;8.93;;;4.65;;
74689;SDS011;63221;51.860;-2.188;2022-09-12T00:20:45;7.17;;;4.77;;
74689;SDS011;63221;51.860;-2.188;2022-09-12T00:23:11;7.93;;;5.32;;
74689;SDS011;63221;51.860;-2.188;2022-09-12T00:25:44;8.32;;;4.68;;
74689;SDS011;63221;51.860;-2.188;2022-09-12T00:28:12;6.78;;;4.47;;
74689;SDS011;63221;51.860;-2.188;2022-09-12T00:30:42;8.00;;;4.95;;
74689;SDS011;63221;51.860;-2.188;2022-09-12T00:33:11;8.07;;;4.10;;
74689;SDS011;63221;51.860;-2.188;2022-09-12T00:35:41;8.40;;;4.47;;
74689;SDS011;63221;51.860;-2.188;2022-09-12T00:38:11;9.27;;;4.88;;
74689;SDS011;63221;51.860;-2.188;2022-09-12T00:40:38;7.80;;;4.10;;
74689;SDS011;63221;51.860;-2.188;2022-09-12T00:43:03;9.17;;;3.97;;
74689;SDS011;63221;51.860;-2.188;2022-09-12T00:45:29;6.72;;;4.25;;
74689;SDS011;63221;51.860;-2.188;2022-09-12T00:47:55;8.00;;;3.90;;
74689;SDS011;63221;51.860;-2.188;2022-09-12T00:50:22;7.68;;;4.10;;
74689;SDS011;63221;51.860;-2.188;2022-09-12T00:52:49;6.40;;;4.38;;
74689;SDS011;63221;51.860;-2.188;2022-09-12T00:55:27;8.55;;;4.10;;
74689;SDS011;63221;51.860;-2.188;2022-09-12T00:58:00;6.80;;;4.43;;
74689;SDS011;63221;51.860;-2.188;2022-09-12T01:00:28;6.37;;;4.13;;
74689;SDS011;63221;51.860;-2.188;2022-09-12T01:02:55;7.72;;;4.10;;
74689;SDS011;63221;51.860;-2.188;2022-09-12T01:05:22;6.28;;;4.70;;
74689;SDS011;63221;51.860;-2.188;2022-09-12T01:07:49;6.20;;;3.80;;
74689;SDS011;63221;51.860;-2.188;2022-09-12T01:10:16;7.70;;;3.40;;
74689;SDS011;63221;51.860;-2.188;2022-09-12T01:12:42;6.65;;;4.20;;
74689;SDS011;63221;51.860;-2.188;2022-09-12T01:15:08;6.40;;;3.70;;
74689;SDS011;63221;51.860;-2.188;2022-09-12T01:17:54;6.50;;;4.30;;
74689;SDS011;63221;51.860;-2.188;2022-09-12T01:23:10;6.88;;;5.32;;
74689;SDS011;63221;51.860;-2.188;2022-09-12T01:34:37;5.80;;;4.10;;
74689;SDS011;63221;51.860;-2.188;2022-09-12T01:45:02;6.53;;;4.80;;
74689;SDS011;63221;51.860;-2.188;2022-09-12T01:47:40;8.60;;;5.27;;
74689;SDS011;63221;51.860;-2.188;2022-09-12T01:50:10;7.13;;;4.70;;
74689;SDS011;63221;51.860;-2.188;2022-09-12T01:55:06;7.57;;;4.90;;
74689;SDS011;63221;51.860;-2.188;2022-09-12T01:57:38;7.68;;;4.40;;
74689;SDS011;63221;51.860;-2.188;2022-09-12T02:00:25;5.90;;;3.97;;
74689;SDS011;63221;51.860;-2.188;2022-09-12T02:03:06;5.70;;;3.67;;
74689;SDS011;63221;51.860;-2.188;2022-09-12T02:08:55;6.30;;;4.45;;
74689;SDS011;63221;51.860;-2.188;2022-09-12T02:11:16;6.60;;;4.07;;
74689;SDS011;63221;51.860;-2.188;2022-09-12T02:13:43;9.40;;;4.90;;
74689;SDS011;63221;51.860;-2.188;2022-09-12T02:16:41;7.45;;;3.95;;
74689;SDS011;63221;51.860;-2.188;2022-09-12T02:19:10;9.20;;;4.68;;
74689;SDS011;63221;51.860;-2.188;2022-09-12T02:21:38;8.10;;;4.22;;
74689;SDS011;63221;51.860;-2.188;2022-09-12T02:24:09;8.13;;;3.70;;
74689;SDS011;63221;51.860;-2.188;2022-09-12T02:26:40;8.52;;;4.38;;
74689;SDS011;63221;51.860;-2.188;2022-09-12T02:29:09;6.78;;;4.47;;
74689;SDS011;63221;51.860;-2.188;2022-09-12T02:39:26;10.38;;;5.05;;
74689;SDS011;63221;51.860;-2.188;2022-09-12T02:41:53;6.00;;;4.47;;
74689;SDS011;63221;51.860;-2.188;2022-09-12T02:44:20;5.10;;;4.03;;
74689;SDS011;63221;51.860;-2.188;2022-09-12T02:46:47;9.23;;;4.20;;
74689;SDS011;63221;51.860;-2.188;2022-09-12T02:49:15;6.63;;;3.92;;
74689;SDS011;63221;51.860;-2.188;2022-09-12T02:51:41;6.82;;;4.05;;
74689;SDS011;63221;51.860;-2.188;2022-09-12T02:54:06;7.30;;;4.27;;
74689;SDS011;63221;51.860;-2.188;2022-09-12T02:56:33;5.75;;;4.55;;
74689;SDS011;63221;51.860;-2.188;2022-09-12T02:59:00;7.32;;;4.60;;
74689;SDS011;63221;51.860;-2.188;2022-09-12T03:01:43;7.73;;;4.10;;
74689;SDS011;63221;51.860;-2.188;2022-09-12T03:04:32;7.50;;;4.15;;
74689;SDS011;63221;51.860;-2.188;2022-09-12T03:12:36;6.25;;;4.35;;
74689;SDS011;63221;51.860;-2.188;2022-09-12T03:15:14;6.68;;;4.05;;
74689;SDS011;63221;51.860;-2.188;2022-09-12T03:18:13;6.13;;;4.38;;
74689;SDS011;63221;51.860;-2.188;2022-09-12T03:26:38;9.47;;;4.73;;
74689;SDS011;63221;51.860;-2.188;2022-09-12T03:29:07;6.63;;;4.57;;
74689;SDS011;63221;51.860;-2.188;2022-09-12T03:31:33;6.32;;;4.00;;
74689;SDS011;63221;51.860;-2.188;2022-09-12T03:33:58;6.17;;;4.40;;
74689;SDS011;63221;51.860;-2.188;2022-09-12T03:36:25;6.50;;;3.85;;
74689;SDS011;63221;51.860;-2.188;2022-09-12T03:38:52;5.05;;;3.00;;
74689;SDS011;63221;51.860;-2.188;2022-09-12T03:41:17;6.57;;;4.00;;
74689;SDS011;63221;51.860;-2.188;2022-09-12T03:43:43;5.40;;;3.80;;
74689;SDS011;63221;51.860;-2.188;2022-09-12T03:46:09;6.77;;;3.87;;
74689;SDS011;63221;51.860;-2.188;2022-09-12T03:48:34;7.80;;;4.78;;
74689;SDS011;63221;51.860;-2.188;2022-09-12T03:51:04;8.57;;;4.77;;
74689;SDS011;63221;51.860;-2.188;2022-09-12T03:53:31;7.85;;;4.78;;
74689;SDS011;63221;51.860;-2.188;2022-09-12T03:55:57;8.37;;;5.50;;
74689;SDS011;63221;51.860;-2.188;2022-09-12T03:58:23;8.45;;;5.22;;
74689;SDS011;63221;51.860;-2.188;2022-09-12T04:00:49;8.33;;;4.80;;
74689;SDS011;63221;51.860;-2.188;2022-09-12T04:03:15;8.07;;;4.80;;
74689;SDS011;63221;51.860;-2.188;2022-09-12T04:05:41;7.32;;;4.40;;
74689;SDS011;63221;51.860;-2.188;2022-09-12T04:08:06;9.30;;;5.40;;
74689;SDS011;63221;51.860;-2.188;2022-09-12T04:10:32;9.27;;;5.10;;
74689;SDS011;63221;51.860;-2.188;2022-09-12T04:12:57;10.02;;;5.18;;
74689;SDS011;63221;51.860;-2.188;2022-09-12T04:15:22;8.97;;;5.30;;
74689;SDS011;63221;51.860;-2.188;2022-09-12T04:17:48;7.47;;;5.53;;
74689;SDS011;63221;51.860;-2.188;2022-09-12T04:20:13;10.43;;;5.60;;
74689;SDS011;63221;51.860;-2.188;2022-09-12T04:22:39;9.25;;;5.10;;
74689;SDS011;63221;51.860;-2.188;2022-09-12T04:25:05;9.07;;;5.37;;
74689;SDS011;63221;51.860;-2.188;2022-09-12T04:27:30;7.28;;;4.60;;
74689;SDS011;63221;51.860;-2.188;2022-09-12T04:29:56;9.50;;;5.03;;
74689;SDS011;63221;51.860;-2.188;2022-09-12T04:32:22;9.38;;;5.35;;
74689;SDS011;63221;51.860;-2.188;2022-09-12T04:34:47;7.87;;;5.13;;
74689;SDS011;63221;51.860;-2.188;2022-09-12T04:37:12;7.93;;;4.87;;
74689;SDS011;63221;51.860;-2.188;2022-09-12T04:39:38;7.93;;;4.60;;
74689;SDS011;63221;51.860;-2.188;2022-09-12T04:42:03;7.47;;;5.22;;
74689;SDS011;63221;51.860;-2.188;2022-09-12T04:44:29;9.43;;;5.40;;
74689;SDS011;63221;51.860;-2.188;2022-09-12T04:46:55;7.97;;;5.32;;
74689;SDS011;63221;51.860;-2.188;2022-09-12T04:49:21;8.70;;;5.70;;
74689;SDS011;63221;51.860;-2.188;2022-09-12T04:51:47;12.37;;;6.47;;
74689;SDS011;63221;51.860;-2.188;2022-09-12T04:54:13;9.77;;;5.38;;
74689;SDS011;63221;51.860;-2.188;2022-09-12T04:56:41;7.10;;;5.40;;
74689;SDS011;63221;51.860;-2.188;2022-09-12T04:59:08;8.90;;;6.80;;
74689;SDS011;63221;51.860;-2.188;2022-09-12T05:01:34;12.10;;;6.47;;
74689;SDS011;63221;51.860;-2.188;2022-09-12T05:04:00;10.10;;;6.77;;
74689;SDS011;63221;51.860;-2.188;2022-09-12T05:06:29;10.30;;;6.25;;
74689;SDS011;63221;51.860;-2.188;2022-09-12T05:08:56;9.60;;;5.97;;
74689;SDS011;63221;51.860;-2.188;2022-09-12T05:11:23;7.82;;;5.00;;
74689;SDS011;63221;51.860;-2.188;2022-09-12T05:13:50;10.67;;;6.00;;
74689;SDS011;63221;51.860;-2.188;2022-09-12T05:16:16;10.25;;;5.70;;
74689;SDS011;63221;51.860;-2.188;2022-09-12T05:18:42;8.48;;;6.45;;
74689;SDS011;63221;51.860;-2.188;2022-09-12T05:21:10;9.37;;;5.50;;
74689;SDS011;63221;51.860;-2.188;2022-09-12T05:23:36;9.43;;;6.20;;
74689;SDS011;63221;51.860;-2.188;2022-09-12T05:26:03;7.78;;;5.28;;
74689;SDS011;63221;51.860;-2.188;2022-09-12T05:28:30;10.40;;;6.47;;
74689;SDS011;63221;51.860;-2.188;2022-09-12T05:31:03;7.60;;;5.45;;
74689;SDS011;63221;51.860;-2.188;2022-09-12T05:33:40;7.45;;;4.88;;
74689;SDS011;63221;51.860;-2.188;2022-09-12T05:36:11;15.05;;;6.60;;
74689;SDS011;63221;51.860;-2.188;2022-09-12T05:38:38;8.10;;;5.18;;
74689;SDS011;63221;51.860;-2.188;2022-09-12T05:43:32;10.40;;;6.00;;
74689;SDS011;63221;51.860;-2.188;2022-09-12T05:46:09;12.33;;;5.90;;
74689;SDS011;63221;51.860;-2.188;2022-09-12T05:48:37;8.02;;;5.35;;
74689;SDS011;63221;51.860;-2.188;2022-09-12T05:51:05;8.18;;;5.22;;
74689;SDS011;63221;51.860;-2.188;2022-09-12T05:53:37;6.90;;;5.50;;
74689;SDS011;63221;51.860;-2.188;2022-09-12T05:56:08;8.85;;;5.22;;
74689;SDS011;63221;51.860;-2.188;2022-09-12T05:58:35;10.93;;;6.43;;
74689;SDS011;63221;51.860;-2.188;2022-09-12T06:01:02;10.23;;;6.18;;
74689;SDS011;63221;51.860;-2.188;2022-09-12T06:03:32;6.63;;;5.18;;
74689;SDS011;63221;51.860;-2.188;2022-09-12T06:06:01;11.85;;;6.28;;
74689;SDS011;63221;51.860;-2.188;2022-09-12T06:08:28;10.27;;;5.65;;
74689;SDS011;63221;51.860;-2.188;2022-09-12T06:10:58;9.97;;;6.13;;
74689;SDS011;63221;51.860;-2.188;2022-09-12T06:13:27;14.38;;;7.03;;
74689;SDS011;63221;51.860;-2.188;2022-09-12T06:15:53;13.88;;;7.80;;
74689;SDS011;63221;51.860;-2.188;2022-09-12T06:18:18;9.13;;;6.33;;
74689;SDS011;63221;51.860;-2.188;2022-09-12T06:20:45;11.40;;;6.30;;
74689;SDS011;63221;51.860;-2.188;2022-09-12T06:23:10;15.40;;;8.00;;
74689;SDS011;63221;51.860;-2.188;2022-09-12T06:25:36;12.38;;;7.88;;
74689;SDS011;63221;51.860;-2.188;2022-09-12T06:28:02;12.65;;;7.65;;
74689;SDS011;63221;51.860;-2.188;2022-09-12T06:30:28;11.70;;;6.97;;
74689;SDS011;63221;51.860;-2.188;2022-09-12T06:32:54;10.32;;;6.75;;
74689;SDS011;63221;51.860;-2.188;2022-09-12T06:35:21;8.75;;;6.60;;
74689;SDS011;63221;51.860;-2.188;2022-09-12T06:37:47;8.47;;;6.27;;
74689;SDS011;63221;51.860;-2.188;2022-09-12T06:40:13;11.18;;;5.95;;
74689;SDS011;63221;51.860;-2.188;2022-09-12T06:42:38;10.77;;;6.20;;
74689;SDS011;63221;51.860;-2.188;2022-09-12T06:45:04;12.13;;;6.37;;
74689;SDS011;63221;51.860;-2.188;2022-09-12T06:47:29;10.50;;;6.28;;
74689;SDS011;63221;51.860;-2.188;2022-09-12T06:49:54;12.40;;;6.83;;
74689;SDS011;63221;51.860;-2.188;2022-09-12T06:52:20;9.73;;;6.00;;
74689;SDS011;63221;51.860;-2.188;2022-09-12T06:54:45;11.70;;;5.83;;
74689;SDS011;63221;51.860;-2.188;2022-09-12T06:57:11;10.95;;;5.97;;
74689;SDS011;63221;51.860;-2.188;2022-09-12T06:59:37;11.07;;;7.57;;
74689;SDS011;63221;51.860;-2.188;2022-09-12T07:02:02;10.13;;;6.88;;
74689;SDS011;63221;51.860;-2.188;2022-09-12T07:04:27;11.17;;;6.77;;
74689;SDS011;63221;51.860;-2.188;2022-09-12T07:06:53;11.20;;;6.10;;
74689;SDS011;63221;51.860;-2.188;2022-09-12T07:09:19;10.00;;;5.93;;
74689;SDS011;63221;51.860;-2.188;2022-09-12T07:11:44;14.63;;;7.00;;
74689;SDS011;63221;51.860;-2.188;2022-09-12T07:14:11;10.05;;;6.93;;
74689;SDS011;63221;51.860;-2.188;2022-09-12T07:16:37;8.23;;;5.50;;
74689;SDS011;63221;51.860;-2.188;2022-09-12T07:19:04;11.57;;;6.30;;
74689;SDS011;63221;51.860;-2.188;2022-09-12T07:21:30;11.48;;;6.15;;
74689;SDS011;63221;51.860;-2.188;2022-09-12T07:23:55;10.33;;;5.57;;
74689;SDS011;63221;51.860;-2.188;2022-09-12T07:26:25;9.25;;;5.55;;
74689;SDS011;63221;51.860;-2.188;2022-09-12T07:28:52;9.57;;;6.05;;
74689;SDS011;63221;51.860;-2.188;2022-09-12T07:31:18;11.75;;;6.10;;
74689;SDS011;63221;51.860;-2.188;2022-09-12T07:33:44;8.87;;;6.07;;
74689;SDS011;63221;51.860;-2.188;2022-09-12T07:36:11;9.95;;;6.32;;
74689;SDS011;63221;51.860;-2.188;2022-09-12T07:38:38;10.13;;;5.67;;
74689;SDS011;63221;51.860;-2.188;2022-09-12T07:43:36;6.53;;;5.07;;
74689;SDS011;63221;51.860;-2.188;2022-09-12T07:46:01;7.33;;;5.40;;
74689;SDS011;63221;51.860;-2.188;2022-09-12T07:48:27;7.53;;;5.20;;
74689;SDS011;63221;51.860;-2.188;2022-09-12T07:50:59;7.25;;;5.00;;
74689;SDS011;63221;51.860;-2.188;2022-09-12T07:53:29;6.73;;;4.87;;
74689;SDS011;63221;51.860;-2.188;2022-09-12T07:55:57;6.90;;;5.10;;
74689;SDS011;63221;51.860;-2.188;2022-09-12T07:58:22;9.50;;;5.15;;
74689;SDS011;63221;51.860;-2.188;2022-09-12T08:00:48;8.10;;;5.83;;
74689;SDS011;63221;51.860;-2.188;2022-09-12T08:03:14;8.15;;;4.78;;
74689;SDS011;63221;51.860;-2.188;2022-09-12T08:05:39;9.03;;;4.77;;
74689;SDS011;63221;51.860;-2.188;2022-09-12T08:08:04;6.77;;;3.90;;
74689;SDS011;63221;51.860;-2.188;2022-09-12T08:10:30;8.23;;;4.87;;
74689;SDS011;63221;51.860;-2.188;2022-09-12T08:12:56;6.47;;;4.10;;
74689;SDS011;63221;51.860;-2.188;2022-09-12T08:15:22;9.85;;;5.05;;
74689;SDS011;63221;51.860;-2.188;2022-09-12T08:17:47;6.00;;;4.67;;
74689;SDS011;63221;51.860;-2.188;2022-09-12T08:20:12;10.03;;;5.40;;
74689;SDS011;63221;51.860;-2.188;2022-09-12T08:22:38;9.00;;;4.77;;
74689;SDS011;63221;51.860;-2.188;2022-09-12T08:25:04;6.13;;;3.50;;
74689;SDS011;63221;51.860;-2.188;2022-09-12T08:27:30;7.40;;;4.28;;
74689;SDS011;63221;51.860;-2.188;2022-09-12T08:29:56;5.87;;;4.77;;
74689;SDS011;63221;51.860;-2.188;2022-09-12T08:32:21;8.73;;;4.43;;
74689;SDS011;63221;51.860;-2.188;2022-09-12T08:34:47;5.43;;;3.30;;
74689;SDS011;63221;51.860;-2.188;2022-09-12T08:37:12;10.23;;;4.33;;
74689;SDS011;63221;51.860;-2.188;2022-09-12T08:39:37;6.20;;;4.20;;
74689;SDS011;63221;51.860;-2.188;2022-09-12T08:42:03;7.00;;;2.93;;
74689;SDS011;63221;51.860;-2.188;2022-09-12T08:47:15;5.75;;;3.60;;
74689;SDS011;63221;51.860;-2.188;2022-09-12T08:52:21;5.18;;;3.67;;
74689;SDS011;63221;51.860;-2.188;2022-09-12T08:54:50;6.70;;;3.20;;
74689;SDS011;63221;51.860;-2.188;2022-09-12T08:57:16;5.97;;;2.90;;
74689;SDS011;63221;51.860;-2.188;2022-09-12T08:59:43;6.60;;;3.67;;
74689;SDS011;63221;51.860;-2.188;2022-09-12T09:10:33;4.70;;;2.80;;
74689;SDS011;63221;51.860;-2.188;2022-09-12T09:15:47;5.60;;;2.90;;
74689;SDS011;63221;51.860;-2.188;2022-09-12T09:18:20;4.85;;;2.67;;
74689;SDS011;63221;51.860;-2.188;2022-09-12T09:20:48;3.95;;;3.25;;
74689;SDS011;63221;51.860;-2.188;2022-09-12T09:26:14;3.33;;;2.70;;
74689;SDS011;63221;51.860;-2.188;2022-09-12T09:28:46;5.20;;;2.73;;
74689;SDS011;63221;51.860;-2.188;2022-09-12T09:31:19;4.28;;;3.13;;
74689;SDS011;63221;51.860;-2.188;2022-09-12T09:33:49;4.75;;;3.00;;
74689;SDS011;63221;51.860;-2.188;2022-09-12T09:39:05;5.05;;;3.47;;
74689;SDS011;63221;51.860;-2.188;2022-09-12T09:44:01;5.03;;;3.05;;
74689;SDS011;63221;51.860;-2.188;2022-09-12T09:46:27;5.03;;;3.53;;
74689;SDS011;63221;51.860;-2.188;2022-09-12T09:48:53;4.93;;;3.47;;
74689;SDS011;63221;51.860;-2.188;2022-09-12T09:51:21;7.27;;;3.90;;
74689;SDS011;63221;51.860;-2.188;2022-09-12T09:54:01;6.50;;;3.70;;
74689;SDS011;63221;51.860;-2.188;2022-09-12T09:56:34;6.53;;;4.43;;
74689;SDS011;63221;51.860;-2.188;2022-09-12T10:01:58;3.90;;;3.30;;
74689;SDS011;63221;51.860;-2.188;2022-09-12T10:04:32;4.63;;;3.50;;
74689;SDS011;63221;51.860;-2.188;2022-09-12T10:06:59;6.55;;;3.13;;
74689;SDS011;63221;51.860;-2.188;2022-09-12T10:09:27;4.65;;;3.05;;
74689;SDS011;63221;51.860;-2.188;2022-09-12T10:11:59;5.55;;;3.00;;
74689;SDS011;63221;51.860;-2.188;2022-09-12T10:16:59;5.43;;;3.07;;
74689;SDS011;63221;51.860;-2.188;2022-09-12T10:19:33;4.47;;;2.88;;
74689;SDS011;63221;51.860;-2.188;2022-09-12T10:22:03;5.20;;;2.88;;
74689;SDS011;63221;51.860;-2.188;2022-09-12T10:24:39;6.03;;;3.67;;
74689;SDS011;63221;51.860;-2.188;2022-09-12T10:29:47;4.30;;;3.00;;
74689;SDS011;63221;51.860;-2.188;2022-09-12T10:34:51;4.28;;;2.53;;
74689;SDS011;63221;51.860;-2.188;2022-09-12T10:37:22;4.43;;;2.03;;
74689;SDS011;63221;51.860;-2.188;2022-09-12T10:39:59;4.60;;;2.25;;
74689;SDS011;63221;51.860;-2.188;2022-09-12T10:45:21;3.33;;;2.30;;
74689;SDS011;63221;51.860;-2.188;2022-09-12T10:47:47;3.13;;;2.80;;
74689;SDS011;63221;51.860;-2.188;2022-09-12T10:52:51;4.63;;;2.65;;
74689;SDS011;63221;51.860;-2.188;2022-09-12T10:55:23;4.43;;;2.50;;
74689;SDS011;63221;51.860;-2.188;2022-09-12T11:00:36;4.45;;;2.55;;
74689;SDS011;63221;51.860;-2.188;2022-09-12T11:05:48;4.15;;;2.78;;
74689;SDS011;63221;51.860;-2.188;2022-09-12T11:11:52;4.97;;;3.22;;
74689;SDS011;63221;51.860;-2.188;2022-09-12T11:28:05;4.40;;;2.85;;
74689;SDS011;63221;51.860;-2.188;2022-09-12T11:30:38;5.15;;;3.70;;
74689;SDS011;63221;51.860;-2.188;2022-09-12T11:36:20;4.23;;;3.63;;
74689;SDS011;63221;51.860;-2.188;2022-09-12T11:39:14;5.90;;;3.25;;
74689;SDS011;63221;51.860;-2.188;2022-09-12T11:41:41;6.13;;;3.05;;
74689;SDS011;63221;51.860;-2.188;2022-09-12T11:47:16;3.25;;;2.70;;
74689;SDS011;63221;51.860;-2.188;2022-09-12T11:49:44;4.20;;;3.20;;
74689;SDS011;63221;51.860;-2.188;2022-09-12T11:52:13;3.95;;;2.80;;
74689;SDS011;63221;51.860;-2.188;2022-09-12T12:05:23;3.78;;;2.13;;
74689;SDS011;63221;51.860;-2.188;2022-09-12T12:07:58;4.10;;;2.17;;
74689;SDS011;63221;51.860;-2.188;2022-09-12T12:12:56;5.38;;;2.42;;
74689;SDS011;63221;51.860;-2.188;2022-09-12T12:15:22;3.40;;;2.40;;
74689;SDS011;63221;51.860;-2.188;2022-09-12T12:17:59;2.53;;;1.38;;
74689;SDS011;63221;51.860;-2.188;2022-09-12T12:20:29;3.70;;;2.33;;
74689;SDS011;63221;51.860;-2.188;2022-09-12T12:22:54;3.93;;;1.50;;
74689;SDS011;63221;51.860;-2.188;2022-09-12T12:25:22;3.03;;;1.52;;
74689;SDS011;63221;51.860;-2.188;2022-09-12T12:27:50;2.47;;;1.70;;
74689;SDS011;63221;51.860;-2.188;2022-09-12T12:35:38;4.15;;;2.22;;
74689;SDS011;63221;51.860;-2.188;2022-09-12T12:43:45;2.67;;;1.60;;
74689;SDS011;63221;51.860;-2.188;2022-09-12T12:46:12;4.93;;;1.98;;
74689;SDS011;63221;51.860;-2.188;2022-09-12T12:54:51;3.53;;;2.63;;
74689;SDS011;63221;51.860;-2.188;2022-09-12T12:56:59;4.45;;;2.40;;
74689;SDS011;63221;51.860;-2.188;2022-09-12T12:59:36;3.25;;;1.83;;
74689;SDS011;63221;51.860;-2.188;2022-09-12T13:02:15;3.23;;;2.37;;
74689;SDS011;63221;51.860;-2.188;2022-09-12T13:04:45;5.40;;;2.60;;
74689;SDS011;63221;51.860;-2.188;2022-09-12T13:07:12;3.90;;;2.43;;
74689;SDS011;63221;51.860;-2.188;2022-09-12T13:09:50;6.75;;;2.47;;
74689;SDS011;63221;51.860;-2.188;2022-09-12T13:12:18;5.68;;;2.42;;
74689;SDS011;63221;51.860;-2.188;2022-09-12T13:14:53;4.97;;;3.20;;
74689;SDS011;63221;51.860;-2.188;2022-09-12T13:17:38;3.97;;;2.42;;
74689;SDS011;63221;51.860;-2.188;2022-09-12T13:22:39;4.30;;;2.55;;
74689;SDS011;63221;51.860;-2.188;2022-09-12T13:30:34;3.05;;;2.13;;
74689;SDS011;63221;51.860;-2.188;2022-09-12T13:33:04;3.20;;;2.10;;
74689;SDS011;63221;51.860;-2.188;2022-09-12T13:43:39;5.47;;;3.20;;
74689;SDS011;63221;51.860;-2.188;2022-09-12T13:46:06;5.43;;;2.90;;
74689;SDS011;63221;51.860;-2.188;2022-09-12T13:48:32;4.30;;;2.63;;
74689;SDS011;63221;51.860;-2.188;2022-09-12T13:50:59;5.53;;;2.28;;
74689;SDS011;63221;51.860;-2.188;2022-09-12T13:53:27;2.95;;;2.40;;
74689;SDS011;63221;51.860;-2.188;2022-09-12T13:55:58;4.20;;;2.70;;
74689;SDS011;63221;51.860;-2.188;2022-09-12T13:58:25;3.70;;;2.50;;
74689;SDS011;63221;51.860;-2.188;2022-09-12T14:01:01;5.90;;;2.40;;
74689;SDS011;63221;51.860;-2.188;2022-09-12T14:03:33;6.13;;;2.53;;
74689;SDS011;63221;51.860;-2.188;2022-09-12T14:06:22;4.63;;;2.92;;
74689;SDS011;63221;51.860;-2.188;2022-09-12T14:08:49;4.60;;;3.00;;
74689;SDS011;63221;51.860;-2.188;2022-09-12T14:11:26;3.67;;;3.38;;
74689;SDS011;63221;51.860;-2.188;2022-09-12T14:13:52;4.03;;;2.50;;
74689;SDS011;63221;51.860;-2.188;2022-09-12T14:16:20;4.53;;;2.63;;
74689;SDS011;63221;51.860;-2.188;2022-09-12T14:18:47;6.65;;;2.60;;
74689;SDS011;63221;51.860;-2.188;2022-09-12T14:21:35;4.23;;;2.60;;
74689;SDS011;63221;51.860;-2.188;2022-09-12T14:24:00;6.47;;;2.67;;
74689;SDS011;63221;51.860;-2.188;2022-09-12T14:26:27;5.57;;;3.38;;
74689;SDS011;63221;51.860;-2.188;2022-09-12T14:28:56;4.50;;;2.65;;
74689;SDS011;63221;51.860;-2.188;2022-09-12T14:31:23;4.87;;;3.10;;
74689;SDS011;63221;51.860;-2.188;2022-09-12T14:33:54;3.67;;;2.10;;
74689;SDS011;63221;51.860;-2.188;2022-09-12T14:36:24;5.25;;;2.60;;
74689;SDS011;63221;51.860;-2.188;2022-09-12T14:38:53;3.72;;;2.97;;
74689;SDS011;63221;51.860;-2.188;2022-09-12T14:41:41;4.80;;;3.20;;
74689;SDS011;63221;51.860;-2.188;2022-09-12T14:44:13;4.20;;;2.90;;
74689;SDS011;63221;51.860;-2.188;2022-09-12T14:46:43;4.65;;;2.58;;
74689;SDS011;63221;51.860;-2.188;2022-09-12T14:49:20;5.53;;;3.30;;
74689;SDS011;63221;51.860;-2.188;2022-09-12T14:57:02;4.63;;;2.70;;
74689;SDS011;63221;51.860;-2.188;2022-09-12T14:59:39;2.83;;;2.45;;
74689;SDS011;63221;51.860;-2.188;2022-09-12T15:04:47;2.80;;;2.13;;
74689;SDS011;63221;51.860;-2.188;2022-09-12T15:10:05;5.30;;;2.58;;
74689;SDS011;63221;51.860;-2.188;2022-09-12T15:12:38;6.00;;;2.50;;
74689;SDS011;63221;51.860;-2.188;2022-09-12T15:15:14;3.80;;;2.50;;
74689;SDS011;63221;51.860;-2.188;2022-09-12T15:17:41;3.30;;;3.03;;
74689;SDS011;63221;51.860;-2.188;2022-09-12T15:20:06;4.93;;;2.50;;
74689;SDS011;63221;51.860;-2.188;2022-09-12T15:22:32;6.05;;;2.35;;
74689;SDS011;63221;51.860;-2.188;2022-09-12T15:24:58;3.90;;;2.00;;
74689;SDS011;63221;51.860;-2.188;2022-09-12T15:27:24;4.10;;;2.23;;
74689;SDS011;63221;51.860;-2.188;2022-09-12T15:29:51;6.00;;;2.72;;
74689;SDS011;63221;51.860;-2.188;2022-09-12T15:32:26;3.80;;;2.33;;
74689;SDS011;63221;51.860;-2.188;2022-09-12T15:34:53;2.77;;;1.87;;
74689;SDS011;63221;51.860;-2.188;2022-09-12T15:37:19;2.35;;;1.90;;
74689;SDS011;63221;51.860;-2.188;2022-09-12T15:39:46;2.67;;;2.15;;
74689;SDS011;63221;51.860;-2.188;2022-09-12T15:42:12;3.30;;;1.70;;
74689;SDS011;63221;51.860;-2.188;2022-09-12T15:44:39;2.85;;;1.92;;
74689;SDS011;63221;51.860;-2.188;2022-09-12T15:47:04;3.70;;;1.83;;
74689;SDS011;63221;51.860;-2.188;2022-09-12T15:49:30;3.53;;;1.83;;
74689;SDS011;63221;51.860;-2.188;2022-09-12T15:51:56;4.03;;;2.00;;
74689;SDS011;63221;51.860;-2.188;2022-09-12T15:54:21;5.13;;;2.10;;
74689;SDS011;63221;51.860;-2.188;2022-09-12T15:56:47;3.00;;;1.63;;
74689;SDS011;63221;51.860;-2.188;2022-09-12T15:59:12;3.40;;;2.07;;
74689;SDS011;63221;51.860;-2.188;2022-09-12T16:01:37;2.57;;;2.10;;
74689;SDS011;63221;51.860;-2.188;2022-09-12T16:04:05;3.25;;;1.63;;
74689;SDS011;63221;51.860;-2.188;2022-09-12T16:06:44;3.50;;;2.03;;
74689;SDS011;63221;51.860;-2.188;2022-09-12T16:09:10;1.73;;;1.30;;
74689;SDS011;63221;51.860;-2.188;2022-09-12T16:11:35;4.17;;;1.60;;
74689;SDS011;63221;51.860;-2.188;2022-09-12T16:14:01;3.10;;;1.67;;
74689;SDS011;63221;51.860;-2.188;2022-09-12T16:16:28;2.90;;;1.60;;
74689;SDS011;63221;51.860;-2.188;2022-09-12T16:18:54;3.70;;;1.48;;
74689;SDS011;63221;51.860;-2.188;2022-09-12T16:21:19;4.10;;;1.90;;
74689;SDS011;63221;51.860;-2.188;2022-09-12T16:23:46;3.40;;;1.43;;
74689;SDS011;63221;51.860;-2.188;2022-09-12T16:26:11;2.70;;;1.60;;
74689;SDS011;63221;51.860;-2.188;2022-09-12T16:28:37;2.65;;;1.58;;
74689;SDS011;63221;51.860;-2.188;2022-09-12T16:31:03;3.00;;;1.60;;
74689;SDS011;63221;51.860;-2.188;2022-09-12T16:33:31;4.07;;;1.73;;
74689;SDS011;63221;51.860;-2.188;2022-09-12T16:36:03;3.63;;;1.90;;
74689;SDS011;63221;51.860;-2.188;2022-09-12T16:38:31;2.60;;;1.63;;
74689;SDS011;63221;51.860;-2.188;2022-09-12T16:41:00;2.90;;;1.55;;
74689;SDS011;63221;51.860;-2.188;2022-09-12T16:43:29;2.58;;;1.63;;
74689;SDS011;63221;51.860;-2.188;2022-09-12T16:46:02;4.93;;;1.80;;
74689;SDS011;63221;51.860;-2.188;2022-09-12T16:48:29;4.07;;;1.90;;
74689;SDS011;63221;51.860;-2.188;2022-09-12T16:50:58;3.92;;;1.63;;
74689;SDS011;63221;51.860;-2.188;2022-09-12T16:53:31;2.50;;;1.60;;
74689;SDS011;63221;51.860;-2.188;2022-09-12T16:55:58;2.67;;;1.52;;
74689;SDS011;63221;51.860;-2.188;2022-09-12T16:58:24;3.33;;;2.03;;
74689;SDS011;63221;51.860;-2.188;2022-09-12T17:01:00;3.90;;;1.95;;
74689;SDS011;63221;51.860;-2.188;2022-09-12T17:03:27;5.05;;;2.70;;
74689;SDS011;63221;51.860;-2.188;2022-09-12T17:05:56;4.15;;;2.15;;
74689;SDS011;63221;51.860;-2.188;2022-09-12T17:08:26;3.30;;;2.33;;
74689;SDS011;63221;51.860;-2.188;2022-09-12T17:10:57;5.35;;;2.58;;
74689;SDS011;63221;51.860;-2.188;2022-09-12T17:13:24;2.65;;;2.42;;
74689;SDS011;63221;51.860;-2.188;2022-09-12T17:15:49;5.07;;;2.63;;
74689;SDS011;63221;51.860;-2.188;2022-09-12T17:18:15;4.07;;;2.80;;
74689;SDS011;63221;51.860;-2.188;2022-09-12T17:20:40;4.53;;;2.40;;
74689;SDS011;63221;51.860;-2.188;2022-09-12T17:23:06;4.03;;;2.77;;
74689;SDS011;63221;51.860;-2.188;2022-09-12T17:25:31;3.83;;;2.53;;
74689;SDS011;63221;51.860;-2.188;2022-09-12T17:27:56;3.92;;;2.03;;
74689;SDS011;63221;51.860;-2.188;2022-09-12T17:30:22;3.60;;;2.20;;
74689;SDS011;63221;51.860;-2.188;2022-09-12T17:32:49;4.37;;;2.60;;
74689;SDS011;63221;51.860;-2.188;2022-09-12T17:35:16;5.40;;;3.05;;
74689;SDS011;63221;51.860;-2.188;2022-09-12T17:37:41;3.00;;;2.47;;